Obelix — 7JAX — position and weather

sailwx.info

Track history (hours):
 
Tides and Currents Weather Stations Pressure Air Temp Water Temp Dewpoint Dewpoint Depression Visibility Wind Speed Wind Dir Waves Ship Positions

Obelix

Last reported at 2017-Jan-19 10:31 UTC. Time now 2017-Jan-21 04:30 UTC.
Position N 35°10' E 139°44'.

Length 74 m; draft 3.9 m.

Type: Tanker. MMSI: 432528000.

Date/timePositionNaut miles runAvg speedWind from/ knotsBaromVisibWave heightAir tempDewpointWater temp
2017-Jan-19 10:31N 35°10' E 139°44'1111.2
2017-Jan-19 09:33N 35°20' E 139°42'1110.6
2017-Jan-19 08:33N 35°30' E 139°47'1 1.2
2017-Jan-19 07:33N 35°31' E 139°46'0 0.0
2017-Jan-19 06:33N 35°31' E 139°46'0 0.0
2017-Jan-19 05:33N 35°31' E 139°46'0 0.0
2017-Jan-19 04:33N 35°31' E 139°46'0 0.0
2017-Jan-19 03:33N 35°31' E 139°46'0 0.0
2017-Jan-19 02:33N 35°31' E 139°46'0 0.0
2017-Jan-19 01:33N 35°31' E 139°46'0 0.0
2017-Jan-19 00:33N 35°31' E 139°46'1 1.0
2017-Jan-18 23:33N 35°30' E 139°45'3 2.9
2017-Jan-18 22:33N 35°28' E 139°44'0 0.0
2017-Jan-18 21:33N 35°28' E 139°44'0 0.0
2017-Jan-18 20:33N 35°28' E 139°44'0 0.0
2017-Jan-18 19:33N 35°28' E 139°44'0 0.0
2017-Jan-18 18:33N 35°28' E 139°44'0 0.0
2017-Jan-18 17:33N 35°28' E 139°44'0 0.0
2017-Jan-18 16:33N 35°28' E 139°44'0 0.0
2017-Jan-18 15:33N 35°28' E 139°44'5 4.8
2017-Jan-18 14:33N 35°23' E 139°46'1110.9
2017-Jan-18 13:33N 35°12' E 139°47'24710.7
2017-Jan-17 14:30N 34°01' E 134°59'1212.7
2017-Jan-17 13:33N 34°13' E 134°59'1212.4
2017-Jan-17 12:33N 34°25' E 135°00'1111.2
2017-Jan-17 11:33N 34°36' E 135°02'1212.2
2017-Jan-17 10:33N 34°40' E 134°48'12 1.2
2017-Jan-17 00:32N 34°37' E 135°02'1111.7
2017-Jan-16 23:33N 34°25' E 135°02'1211.8
2017-Jan-16 22:33N 34°14' E 134°59'1211.7
2017-Jan-16 21:30N 34°02' E 135°01'  
2017-Jan-13 08:15N 34°37' E 134°56'6 8.8
2017-Jan-13 07:33N 34°36' E 135°04'1010.1
2017-Jan-13 06:33N 34°34' E 135°16'8 6.9
2017-Jan-13 05:22N 34°33' E 135°25'0 0.0
2017-Jan-13 04:28N 34°33' E 135°25'0 0.0
2017-Jan-13 03:28N 34°33' E 135°25'0 0.0
2017-Jan-13 02:28N 34°33' E 135°25'0 0.0
2017-Jan-13 01:22N 34°33' E 135°25'0 0.6
2017-Jan-13 00:33N 34°33' E 135°25'4 3.6
2017-Jan-12 23:24N 34°32' E 135°20'0 0.0
2017-Jan-12 22:30N 34°32' E 135°20'0 0.0
2017-Jan-12 21:30N 34°32' E 135°20'0 0.0
2017-Jan-12 20:30N 34°32' E 135°20'0 0.0
2017-Jan-12 19:30N 34°32' E 135°20'0 0.0
2017-Jan-12 18:24N 34°32' E 135°20'0 0.0
2017-Jan-12 16:30N 34°32' E 135°20'0 0.0
2017-Jan-12 15:30N 34°32' E 135°20'2 2.1
2017-Jan-12 14:33N 34°32' E 135°18'1212.2
2017-Jan-12 13:33N 34°35' E 135°04'1111.2
2017-Jan-12 12:33N 34°39' E 134°51'3 0.3
2017-Jan-12 01:12N 34°41' E 134°48'711.0
2017-Jan-12 00:31N 34°37' E 134°56'1010.1
2017-Jan-11 23:33N 34°30' E 135°04'1413.4
2017-Jan-11 22:33N 34°17' E 134°59'1312.9
2017-Jan-11 21:32N 34°04' E 135°01'  
Track history (hours):
 
Tides and Currents Weather Stations Pressure Air Temp Water Temp Dewpoint Dewpoint Depression Visibility Wind Speed Wind Dir Waves Ship Positions

Obelix

Last reported at 2017-Jan-19 10:31 UTC. Time now 2017-Jan-21 04:30 UTC.
Position N 35°10' E 139°44'.

Length 74 m; draft 3.9 m.

Type: Tanker. MMSI: 432528000.

Date/timePositionNaut miles runAvg speedWind from/ knotsBaromVisibWave heightAir tempDewpointWater temp
2017-Jan-19 10:31N 35°10' E 139°44'1111.2
2017-Jan-19 09:33N 35°20' E 139°42'1110.6
2017-Jan-19 08:33N 35°30' E 139°47'1 1.2
2017-Jan-19 07:33N 35°31' E 139°46'0 0.0
2017-Jan-19 06:33N 35°31' E 139°46'0 0.0
2017-Jan-19 05:33N 35°31' E 139°46'0 0.0
2017-Jan-19 04:33N 35°31' E 139°46'0 0.0
2017-Jan-19 03:33N 35°31' E 139°46'0 0.0
2017-Jan-19 02:33N 35°31' E 139°46'0 0.0
2017-Jan-19 01:33N 35°31' E 139°46'0 0.0
2017-Jan-19 00:33N 35°31' E 139°46'1 1.0
2017-Jan-18 23:33N 35°30' E 139°45'3 2.9
2017-Jan-18 22:33N 35°28' E 139°44'0 0.0
2017-Jan-18 21:33N 35°28' E 139°44'0 0.0
2017-Jan-18 20:33N 35°28' E 139°44'0 0.0
2017-Jan-18 19:33N 35°28' E 139°44'0 0.0
2017-Jan-18 18:33N 35°28' E 139°44'0 0.0
2017-Jan-18 17:33N 35°28' E 139°44'0 0.0
2017-Jan-18 16:33N 35°28' E 139°44'0 0.0
2017-Jan-18 15:33N 35°28' E 139°44'5 4.8
2017-Jan-18 14:33N 35°23' E 139°46'1110.9
2017-Jan-18 13:33N 35°12' E 139°47'24710.7
2017-Jan-17 14:30N 34°01' E 134°59'1212.7
2017-Jan-17 13:33N 34°13' E 134°59'1212.4
2017-Jan-17 12:33N 34°25' E 135°00'1111.2
2017-Jan-17 11:33N 34°36' E 135°02'1212.2
2017-Jan-17 10:33N 34°40' E 134°48'12 1.2
2017-Jan-17 00:32N 34°37' E 135°02'1111.7
2017-Jan-16 23:33N 34°25' E 135°02'1211.8
2017-Jan-16 22:33N 34°14' E 134°59'1211.7
2017-Jan-16 21:30N 34°02' E 135°01'  
2017-Jan-13 08:15N 34°37' E 134°56'6 8.8
2017-Jan-13 07:33N 34°36' E 135°04'1010.1
2017-Jan-13 06:33N 34°34' E 135°16'8 6.9
2017-Jan-13 05:22N 34°33' E 135°25'0 0.0
2017-Jan-13 04:28N 34°33' E 135°25'0 0.0
2017-Jan-13 03:28N 34°33' E 135°25'0 0.0
2017-Jan-13 02:28N 34°33' E 135°25'0 0.0
2017-Jan-13 01:22N 34°33' E 135°25'0 0.6
2017-Jan-13 00:33N 34°33' E 135°25'4 3.6
2017-Jan-12 23:24N 34°32' E 135°20'0 0.0
2017-Jan-12 22:30N 34°32' E 135°20'0 0.0
2017-Jan-12 21:30N 34°32' E 135°20'0 0.0
2017-Jan-12 20:30N 34°32' E 135°20'0 0.0
2017-Jan-12 19:30N 34°32' E 135°20'0 0.0
2017-Jan-12 18:24N 34°32' E 135°20'0 0.0
2017-Jan-12 16:30N 34°32' E 135°20'0 0.0
2017-Jan-12 15:30N 34°32' E 135°20'2 2.1
2017-Jan-12 14:33N 34°32' E 135°18'1212.2
2017-Jan-12 13:33N 34°35' E 135°04'1111.2
2017-Jan-12 12:33N 34°39' E 134°51'3 0.3
2017-Jan-12 01:12N 34°41' E 134°48'711.0
2017-Jan-12 00:31N 34°37' E 134°56'1010.1
2017-Jan-11 23:33N 34°30' E 135°04'1413.4
2017-Jan-11 22:33N 34°17' E 134°59'1312.9
2017-Jan-11 21:32N 34°04' E 135°01'  

Dump ship's entire track history